createdAt,value
2019-02-24T00:03:11.999Z,17.57
2019-02-24T00:07:15.414Z,18.90
2019-02-24T00:11:21.953Z,19.40
2019-02-24T00:15:25.328Z,19.40
2019-02-24T00:19:28.709Z,21.27
2019-02-24T00:23:32.122Z,20.23
2019-02-24T00:27:35.560Z,20.67
2019-02-24T00:31:38.886Z,20.50
2019-02-24T00:35:42.242Z,21.20
2019-02-24T00:39:45.551Z,20.57
2019-02-24T00:43:48.958Z,23.10
2019-02-24T00:47:52.367Z,22.33
2019-02-24T00:51:55.773Z,19.70
2019-02-24T00:55:59.180Z,19.73
2019-02-24T01:00:02.591Z,21.97
2019-02-24T01:04:05.998Z,20.17
2019-02-24T01:08:09.418Z,22.87
2019-02-24T01:12:13.123Z,19.03
2019-02-24T01:16:16.534Z,20.33
2019-02-24T01:20:19.835Z,21.20
2019-02-24T01:24:23.252Z,20.03
2019-02-24T01:28:26.669Z,20.00
2019-02-24T01:32:30.067Z,22.20
2019-02-24T01:36:33.380Z,20.77
2019-02-24T01:40:36.783Z,22.33
2019-02-24T01:44:40.190Z,21.57
2019-02-24T01:48:43.702Z,22.07
2019-02-24T01:52:47.063Z,22.20
2019-02-24T01:56:50.417Z,21.97
2019-02-24T02:00:53.828Z,21.57
2019-02-24T02:04:58.531Z,22.45
2019-02-24T02:09:01.972Z,22.70
2019-02-24T02:13:05.386Z,22.40
2019-02-24T02:17:08.790Z,21.73
2019-02-24T02:21:12.200Z,25.30
2019-02-24T02:25:15.586Z,22.03
2019-02-24T02:29:19.018Z,22.67
2019-02-24T02:33:22.430Z,22.03
2019-02-24T02:37:25.834Z,20.67
2019-02-24T02:41:29.245Z,20.70
2019-02-24T02:45:33.677Z,21.90
2019-02-24T02:49:37.090Z,22.00
2019-02-24T02:53:40.490Z,23.10
2019-02-24T02:57:43.800Z,23.60
2019-02-24T03:01:47.117Z,24.40
2019-02-24T03:05:58.092Z,23.87
2019-02-24T03:10:02.875Z,24.45
2019-02-24T03:14:06.342Z,24.77
2019-02-24T03:18:09.661Z,24.17
2019-02-24T03:22:13.071Z,25.00
2019-02-24T03:26:16.374Z,23.57
2019-02-24T03:30:19.773Z,23.97
2019-02-24T03:34:23.079Z,23.67
2019-02-24T03:38:26.491Z,21.70
2019-02-24T03:42:30.143Z,19.80
2019-02-24T03:46:33.525Z,18.77
2019-02-24T03:50:37.021Z,19.93
2019-02-24T03:54:40.429Z,20.60
2019-02-24T03:58:43.838Z,19.70
2019-02-24T04:02:47.146Z,22.07
2019-02-24T04:06:50.460Z,19.90
2019-02-24T04:10:53.865Z,19.93
2019-02-24T04:14:57.267Z,22.37
2019-02-24T04:19:00.675Z,22.77
2019-02-24T04:23:04.160Z,21.77
2019-02-24T04:27:07.495Z,19.73
2019-02-24T04:31:10.909Z,20.43
2019-02-24T04:35:14.197Z,20.50
2019-02-24T04:39:17.617Z,20.77
2019-02-24T04:43:21.037Z,22.20
2019-02-24T04:47:24.354Z,21.13
2019-02-24T04:51:27.741Z,21.93
2019-02-24T04:55:31.151Z,22.53
2019-02-24T04:59:35.345Z,22.30
2019-02-24T05:03:38.772Z,22.93
2019-02-24T05:07:42.096Z,21.77
2019-02-24T05:11:45.712Z,23.20
2019-02-24T05:15:49.115Z,25.80
2019-02-24T05:19:52.514Z,20.60
2019-02-24T05:23:55.939Z,22.23
2019-02-24T05:27:59.236Z,20.97
2019-02-24T05:32:02.648Z,19.33
2019-02-24T05:36:05.955Z,19.60
2019-02-24T05:40:09.364Z,22.07
2019-02-24T05:44:12.997Z,22.77
2019-02-24T05:48:16.350Z,22.90
2019-02-24T05:52:19.693Z,22.97
2019-02-24T05:56:23.110Z,22.63
2019-02-24T06:00:26.525Z,23.30
2019-02-24T06:04:29.921Z,23.30
2019-02-24T06:08:33.324Z,24.13
2019-02-24T06:12:36.739Z,23.33
2019-02-24T06:16:40.123Z,23.83
2019-02-24T06:20:43.447Z,19.67
2019-02-24T06:24:46.860Z,22.67
2019-02-24T06:28:50.367Z,21.53
2019-02-24T06:32:53.881Z,21.33
2019-02-24T06:36:57.309Z,21.63
2019-02-24T06:41:00.700Z,22.37
2019-02-24T06:45:05.119Z,21.07
2019-02-24T06:49:08.541Z,19.47
2019-02-24T06:53:12.950Z,18.40
2019-02-24T06:57:16.981Z,19.32
2019-02-24T07:01:20.404Z,20.82
2019-02-24T07:05:23.824Z,19.62
2019-02-24T07:09:27.241Z,19.00
2019-02-24T07:13:30.649Z,21.68
2019-02-24T07:17:34.051Z,24.05
2019-02-24T07:21:37.445Z,22.05
2019-02-24T07:25:40.875Z,21.23
2019-02-24T07:29:44.216Z,22.85
2019-02-24T07:33:47.778Z,22.73
2019-02-24T07:37:51.104Z,23.75
2019-02-24T07:41:54.488Z,22.87
2019-02-24T07:45:57.787Z,22.13
2019-02-24T07:50:01.222Z,21.93
2019-02-24T07:54:04.520Z,20.57
2019-02-24T07:58:07.918Z,20.97
2019-02-24T08:02:11.225Z,18.60
2019-02-24T08:06:14.520Z,17.05
2019-02-24T08:10:17.941Z,19.77
2019-02-24T08:14:21.262Z,18.70
2019-02-24T08:18:24.660Z,21.77
2019-02-24T08:22:28.006Z,19.23
2019-02-24T08:26:31.335Z,17.35
2019-02-24T08:30:41.627Z,16.17
2019-02-24T08:34:40.954Z,18.00
2019-02-24T08:38:44.362Z,17.35
2019-02-24T08:42:47.772Z,16.10
2019-02-24T08:46:51.192Z,17.10
2019-02-24T08:50:54.588Z,18.35
2019-02-24T08:54:57.997Z,16.50
2019-02-24T08:59:01.405Z,16.00
2019-02-24T09:03:04.814Z,14.28
2019-02-24T09:07:08.635Z,13.65
2019-02-24T09:11:12.013Z,15.55
2019-02-24T09:15:15.696Z,14.15
2019-02-24T09:19:19.259Z,16.02
2019-02-24T09:23:22.643Z,16.57
2019-02-24T09:27:25.983Z,16.32
2019-02-24T09:31:29.612Z,15.45
2019-02-24T09:35:33.005Z,14.70
2019-02-24T09:39:36.414Z,17.40
2019-02-24T09:43:39.821Z,16.67
2019-02-24T09:47:46.720Z,15.90
2019-02-24T09:51:48.589Z,15.53
2019-02-24T09:55:51.995Z,16.35
2019-02-24T09:59:55.406Z,15.30
2019-02-24T10:03:58.793Z,13.45
2019-02-24T10:08:02.226Z,13.08
2019-02-24T10:12:05.594Z,14.28
2019-02-24T10:16:09.039Z,12.75
2019-02-24T10:20:12.949Z,12.95
2019-02-24T10:24:16.369Z,13.60
2019-02-24T10:28:19.781Z,13.28
2019-02-24T10:32:23.203Z,12.85
2019-02-24T10:36:26.598Z,13.93
2019-02-24T10:40:30.004Z,13.50
2019-02-24T10:44:33.416Z,13.48
2019-02-24T10:48:36.752Z,12.68
2019-02-24T10:52:40.244Z,12.40
2019-02-24T10:56:43.765Z,11.05
2019-02-24T11:00:47.154Z,10.88
2019-02-24T11:04:50.588Z,10.85
2019-02-24T11:08:53.894Z,11.70
2019-02-24T11:12:57.483Z,11.78
2019-02-24T11:17:00.895Z,12.35
2019-02-24T11:21:04.299Z,12.00
2019-02-24T11:25:09.617Z,11.48
2019-02-24T11:29:13.052Z,11.30
2019-02-24T11:33:16.473Z,11.38
2019-02-24T11:37:19.884Z,10.65
2019-02-24T11:41:23.291Z,10.90
2019-02-24T11:45:26.700Z,10.30
2019-02-24T11:49:30.121Z,11.22
2019-02-24T11:53:33.518Z,11.78
2019-02-24T11:57:36.847Z,10.30
2019-02-24T12:01:47.315Z,9.40
2019-02-24T12:05:45.279Z,10.05
2019-02-24T12:09:48.691Z,10.55
2019-02-24T12:13:52.205Z,8.70
2019-02-24T12:17:55.609Z,9.77
2019-02-24T12:21:58.904Z,9.90
2019-02-24T12:26:02.221Z,9.37
2019-02-24T12:30:08.909Z,8.40
2019-02-24T12:34:12.256Z,9.20
2019-02-24T12:38:15.552Z,9.65
2019-02-24T12:42:18.936Z,10.23
2019-02-24T12:46:22.342Z,9.73
2019-02-24T12:50:25.671Z,10.15
2019-02-24T12:54:29.062Z,10.00
2019-02-24T12:58:32.455Z,8.65
2019-02-24T13:02:35.762Z,8.73
2019-02-24T13:06:39.083Z,8.25
2019-02-24T13:10:42.377Z,8.80
2019-02-24T13:14:46.104Z,8.33
2019-02-24T13:18:49.498Z,7.35
2019-02-24T13:22:52.817Z,8.53
2019-02-24T13:26:56.224Z,8.83
2019-02-24T13:30:59.562Z,8.78
2019-02-24T13:35:04.597Z,8.73
2019-02-24T13:39:07.993Z,8.90
2019-02-24T13:43:11.360Z,8.58
2019-02-24T13:47:14.710Z,7.83
2019-02-24T13:51:18.116Z,7.72
2019-02-24T13:55:21.443Z,9.33
2019-02-24T13:59:24.828Z,8.08
2019-02-24T14:03:28.139Z,7.90
2019-02-24T14:07:31.436Z,7.28
2019-02-24T14:11:34.798Z,7.50
2019-02-24T14:15:38.216Z,7.12
2019-02-24T14:19:41.612Z,8.10
2019-02-24T14:23:44.905Z,7.08
2019-02-24T14:27:48.281Z,7.55
2019-02-24T14:31:51.589Z,7.08
2019-02-24T14:35:54.926Z,7.28
2019-02-24T14:39:58.243Z,7.75
2019-02-24T14:44:01.556Z,7.40
2019-02-24T14:48:05.743Z,7.87
2019-02-24T14:52:09.074Z,7.78
2019-02-24T14:56:12.561Z,7.58
2019-02-24T15:00:21.737Z,7.50
2019-02-24T15:04:25.028Z,7.85
2019-02-24T15:08:28.414Z,7.60
2019-02-24T15:12:31.727Z,7.37
2019-02-24T15:16:35.046Z,7.75
2019-02-24T15:20:38.371Z,7.80
2019-02-24T15:24:41.678Z,6.85
2019-02-24T15:28:44.967Z,7.65
2019-02-24T15:32:51.522Z,7.80
2019-02-24T15:36:53.507Z,7.40
2019-02-24T15:40:56.915Z,7.58
2019-02-24T15:45:00.249Z,7.30
2019-02-24T15:49:03.634Z,7.85
2019-02-24T15:53:07.040Z,8.05
2019-02-24T15:57:11.580Z,8.83
2019-02-24T16:01:14.989Z,10.03
2019-02-24T16:05:18.291Z,9.10
2019-02-24T16:09:21.700Z,9.40
2019-02-24T16:13:25.015Z,10.43
2019-02-24T16:17:28.340Z,10.88
2019-02-24T16:21:31.823Z,9.98
2019-02-24T16:25:35.168Z,10.32
2019-02-24T16:29:38.445Z,9.88
2019-02-24T16:33:41.736Z,10.72
2019-02-24T16:37:45.162Z,9.75
2019-02-24T16:41:48.474Z,9.88
2019-02-24T16:45:52.082Z,10.50
2019-02-24T16:49:55.401Z,9.77
2019-02-24T16:53:58.737Z,9.53
2019-02-24T16:58:02.060Z,8.15
2019-02-24T17:02:05.375Z,7.53
2019-02-24T17:06:08.708Z,6.95
2019-02-24T17:10:19.902Z,7.72
2019-02-24T17:14:24.809Z,8.08
2019-02-24T17:18:28.188Z,8.50
2019-02-24T17:22:31.507Z,6.80
2019-02-24T17:26:34.800Z,7.60
2019-02-24T17:30:38.090Z,7.12
2019-02-24T17:34:41.481Z,7.50
2019-02-24T17:38:44.891Z,7.97
2019-02-24T17:42:48.221Z,7.40
2019-02-24T17:46:51.486Z,6.78
2019-02-24T17:50:55.126Z,6.12
2019-02-24T17:54:58.423Z,6.05
2019-02-24T17:59:01.838Z,6.60
2019-02-24T18:03:05.171Z,7.28
2019-02-24T18:07:08.556Z,5.62
2019-02-24T18:11:11.891Z,7.00
2019-02-24T18:15:15.273Z,5.65
2019-02-24T18:19:18.595Z,6.58
2019-02-24T18:23:21.911Z,5.92
2019-02-24T18:27:25.284Z,5.86
2019-02-24T18:31:28.697Z,6.35
2019-02-24T18:35:32.002Z,6.45
2019-02-24T18:39:35.407Z,5.58
2019-02-24T18:43:38.742Z,5.42
2019-02-24T18:47:42.054Z,4.72
2019-02-24T18:51:45.378Z,5.87
2019-02-24T18:55:48.668Z,5.08
2019-02-24T18:59:52.044Z,5.62
2019-02-24T19:03:57.949Z,5.47
2019-02-24T19:08:00.505Z,5.42
2019-02-24T19:12:03.990Z,6.08
2019-02-24T19:16:07.391Z,5.87
2019-02-24T19:20:16.131Z,6.17
2019-02-24T19:24:19.466Z,6.28
2019-02-24T19:28:22.922Z,6.92
2019-02-24T19:32:26.326Z,6.10
2019-02-24T19:36:29.745Z,5.37
2019-02-24T19:40:33.354Z,6.80
2019-02-24T19:44:36.751Z,6.60
2019-02-24T19:48:42.167Z,6.67
2019-02-24T19:52:45.316Z,6.00
2019-02-24T19:56:48.751Z,7.58
2019-02-24T20:00:52.224Z,6.42
2019-02-24T20:04:55.607Z,5.58
2019-02-24T20:08:58.904Z,6.47
2019-02-24T20:13:02.317Z,5.90
2019-02-24T20:17:05.701Z,6.05
2019-02-24T20:21:09.031Z,6.28
2019-02-24T20:25:13.995Z,6.14
2019-02-24T20:29:17.334Z,5.75
2019-02-24T20:33:20.692Z,5.25
2019-02-24T20:37:24.000Z,4.35
2019-02-24T20:41:27.410Z,4.90
2019-02-24T20:45:30.915Z,5.92
2019-02-24T20:49:34.428Z,5.45
2019-02-24T20:53:37.797Z,6.20
2019-02-24T20:57:41.123Z,4.70
2019-02-24T21:01:44.457Z,4.85
2019-02-24T21:05:48.575Z,5.74
2019-02-24T21:09:51.881Z,5.70
2019-02-24T21:13:55.291Z,6.80
2019-02-24T21:17:58.596Z,5.77
2019-02-24T21:22:02.012Z,7.00
2019-02-24T21:26:05.418Z,6.17
2019-02-24T21:30:14.763Z,5.97
2019-02-24T21:34:18.273Z,5.20
2019-02-24T21:38:21.565Z,5.20
2019-02-24T21:42:25.006Z,5.57
2019-02-24T21:46:28.328Z,5.58
2019-02-24T21:50:31.808Z,5.60
2019-02-24T21:54:35.293Z,5.22
2019-02-24T21:58:38.585Z,5.23
2019-02-24T22:02:41.931Z,5.70
2019-02-24T22:06:45.346Z,5.30
2019-02-24T22:10:48.750Z,5.00
2019-02-24T22:14:52.159Z,5.40
2019-02-24T22:18:55.465Z,5.28
2019-02-24T22:22:58.885Z,5.97
2019-02-24T22:27:02.291Z,6.47
2019-02-24T22:31:05.693Z,7.60
2019-02-24T22:35:09.557Z,6.60
2019-02-24T22:39:12.919Z,6.23
2019-02-24T22:43:16.330Z,6.47
2019-02-24T22:47:19.736Z,6.73
2019-02-24T22:51:23.104Z,7.23
2019-02-24T22:55:26.462Z,8.80
2019-02-24T22:59:29.763Z,9.28
2019-02-24T23:03:35.394Z,7.57
2019-02-24T23:07:39.073Z,8.17
2019-02-24T23:11:42.365Z,6.43
2019-02-24T23:15:45.752Z,8.20
2019-02-24T23:19:49.065Z,7.20
2019-02-24T23:23:52.467Z,9.03
2019-02-24T23:27:55.871Z,8.63
2019-02-24T23:31:59.171Z,8.03
2019-02-24T23:36:02.591Z,8.43
2019-02-24T23:40:07.975Z,9.60
2019-02-24T23:44:11.555Z,9.00
2019-02-24T23:48:14.963Z,9.50
2019-02-24T23:52:19.296Z,9.70
2019-02-24T23:56:22.585Z,9.37
